createdAt,value
2018-06-30T00:01:49.840Z,20.90
2018-06-30T00:04:17.982Z,20.80
2018-06-30T00:06:46.226Z,20.90
2018-06-30T00:09:14.473Z,20.70
2018-06-30T00:11:42.672Z,20.80
2018-06-30T00:14:11.023Z,20.90
2018-06-30T00:16:39.390Z,20.90
2018-06-30T00:19:07.616Z,21.00
2018-06-30T00:21:35.875Z,21.00
2018-06-30T00:24:04.104Z,20.90
2018-06-30T00:26:32.353Z,20.90
2018-06-30T00:29:00.677Z,20.70
2018-06-30T00:31:28.900Z,20.80
2018-06-30T00:33:57.172Z,20.80
2018-06-30T00:36:25.343Z,20.80
2018-06-30T00:38:53.666Z,20.90
2018-06-30T00:41:21.976Z,20.90
2018-06-30T00:43:50.260Z,20.90
2018-06-30T00:46:18.471Z,20.80
2018-06-30T00:48:46.675Z,20.90
2018-06-30T00:51:14.971Z,20.90
2018-06-30T00:53:43.305Z,20.90
2018-06-30T00:56:11.617Z,20.90
2018-06-30T00:58:39.806Z,20.80
2018-06-30T01:01:08.043Z,20.90
2018-06-30T01:03:36.314Z,20.90
2018-06-30T01:06:04.634Z,20.90
2018-06-30T01:08:32.860Z,21.00
2018-06-30T01:11:01.123Z,20.90
2018-06-30T01:13:29.459Z,20.90
2018-06-30T01:15:57.727Z,20.80
2018-06-30T01:18:25.918Z,20.90
2018-06-30T01:20:54.158Z,20.80
2018-06-30T01:23:22.448Z,20.90
2018-06-30T01:25:50.642Z,20.90
2018-06-30T01:28:18.905Z,20.80
2018-06-30T01:30:47.136Z,20.80
2018-06-30T01:33:15.349Z,20.80
2018-06-30T01:35:43.606Z,20.80
2018-06-30T01:38:11.774Z,20.80
2018-06-30T01:40:40.089Z,20.80
2018-06-30T01:43:08.422Z,20.80
2018-06-30T01:45:36.605Z,20.80
2018-06-30T01:48:04.855Z,20.80
2018-06-30T01:53:04.854Z,20.80
2018-06-30T01:55:33.079Z,20.70
2018-06-30T01:58:01.317Z,20.70
2018-06-30T02:00:29.575Z,20.70
2018-06-30T02:02:57.796Z,20.70
2018-06-30T02:05:28.125Z,20.70
2018-06-30T02:07:56.383Z,20.60
2018-06-30T02:10:24.596Z,20.60
2018-06-30T02:12:52.819Z,20.60
2018-06-30T02:15:21.038Z,20.50
2018-06-30T02:17:49.322Z,20.50
2018-06-30T02:20:17.550Z,20.50
2018-06-30T02:22:45.711Z,20.50
2018-06-30T02:25:13.955Z,20.40
2018-06-30T02:27:42.137Z,20.40
2018-06-30T02:30:10.398Z,20.30
2018-06-30T02:32:38.634Z,20.30
2018-06-30T02:35:06.863Z,20.20
2018-06-30T02:37:35.104Z,20.30
2018-06-30T02:40:03.331Z,20.30
2018-06-30T02:42:31.662Z,20.30
2018-06-30T02:44:59.896Z,20.20
2018-06-30T02:47:28.131Z,20.20
2018-06-30T02:49:56.411Z,20.20
2018-06-30T02:52:24.654Z,20.20
2018-06-30T02:54:52.940Z,20.10
2018-06-30T02:57:21.155Z,20.10
2018-06-30T02:59:49.498Z,20.10
2018-06-30T03:02:17.722Z,20.10
2018-06-30T03:04:46.001Z,20.10
2018-06-30T03:07:14.248Z,20.00
2018-06-30T03:09:43.033Z,20.10
2018-06-30T03:12:11.201Z,20.00
2018-06-30T03:14:39.459Z,20.00
2018-06-30T03:17:07.710Z,20.00
2018-06-30T03:19:35.983Z,20.00
2018-06-30T03:22:08.733Z,20.00
2018-06-30T03:24:37.022Z,19.90
2018-06-30T03:27:05.283Z,19.80
2018-06-30T03:29:33.552Z,19.90
2018-06-30T03:32:01.820Z,19.70
2018-06-30T03:34:30.074Z,19.80
2018-06-30T03:36:58.383Z,19.80
2018-06-30T03:39:26.584Z,19.80
2018-06-30T03:41:54.839Z,19.80
2018-06-30T03:44:23.097Z,19.80
2018-06-30T03:46:51.281Z,19.80
2018-06-30T03:49:19.528Z,19.80
2018-06-30T03:51:47.722Z,19.70
2018-06-30T03:54:16.093Z,19.60
2018-06-30T03:56:44.381Z,19.70
2018-06-30T03:59:12.582Z,19.70
2018-06-30T04:01:40.812Z,19.60
2018-06-30T04:04:09.044Z,19.60
2018-06-30T04:06:37.306Z,19.60
2018-06-30T04:09:08.054Z,19.70
2018-06-30T04:11:36.243Z,19.60
2018-06-30T04:14:04.686Z,19.60
2018-06-30T04:16:32.891Z,19.70
2018-06-30T04:19:10.299Z,19.50
2018-06-30T04:21:38.462Z,19.50
2018-06-30T04:24:06.758Z,19.50
2018-06-30T04:26:35.068Z,19.50
2018-06-30T04:29:03.332Z,19.50
2018-06-30T04:31:31.590Z,19.50
2018-06-30T04:33:59.920Z,19.50
2018-06-30T04:36:28.155Z,19.60
2018-06-30T04:41:44.570Z,19.60
2018-06-30T04:44:12.837Z,19.60
2018-06-30T04:46:41.075Z,19.60
2018-06-30T04:49:09.310Z,19.60
2018-06-30T04:51:37.575Z,19.50
2018-06-30T04:54:05.722Z,19.60
2018-06-30T04:56:34.005Z,19.50
2018-06-30T04:59:02.280Z,19.50
2018-06-30T05:01:30.480Z,19.60
2018-06-30T05:03:58.793Z,19.60
2018-06-30T05:06:27.014Z,19.60
2018-06-30T05:08:55.252Z,19.60
2018-06-30T05:11:23.620Z,19.70
2018-06-30T05:13:51.931Z,19.70
2018-06-30T05:16:20.143Z,19.80
2018-06-30T05:18:48.288Z,20.00
2018-06-30T05:21:16.516Z,20.00
2018-06-30T05:23:44.791Z,20.00
2018-06-30T05:26:12.958Z,20.10
2018-06-30T05:28:41.138Z,20.20
2018-06-30T05:33:55.561Z,20.20
2018-06-30T05:36:23.875Z,20.10
2018-06-30T05:38:52.222Z,20.10
2018-06-30T05:41:20.459Z,20.10
2018-06-30T05:43:48.715Z,20.10
2018-06-30T05:46:17.118Z,20.20
2018-06-30T05:48:45.371Z,20.30
2018-06-30T05:51:13.758Z,20.40
2018-06-30T05:53:42.046Z,20.50
2018-06-30T05:56:10.475Z,20.60
2018-06-30T05:58:38.778Z,20.70
2018-06-30T06:01:07.310Z,20.80
2018-06-30T06:06:03.166Z,20.90
2018-06-30T06:08:31.305Z,21.00
2018-06-30T06:10:59.506Z,21.20
2018-06-30T06:13:27.670Z,21.30
2018-06-30T06:15:55.902Z,21.40
2018-06-30T06:18:24.098Z,21.50
2018-06-30T06:20:52.338Z,21.60
2018-06-30T06:23:20.594Z,21.80
2018-06-30T06:25:48.921Z,22.00
2018-06-30T06:28:17.043Z,22.10
2018-06-30T06:30:45.197Z,22.10
2018-06-30T06:33:13.414Z,22.30
2018-06-30T06:35:41.644Z,22.50
2018-06-30T06:38:09.934Z,22.70
2018-06-30T06:40:38.082Z,23.00
2018-06-30T06:45:33.965Z,23.30
2018-06-30T06:48:02.266Z,23.50
2018-06-30T06:50:30.474Z,23.70
2018-06-30T06:52:58.893Z,23.90
2018-06-30T06:55:27.257Z,24.10
2018-06-30T06:57:55.455Z,24.20
2018-06-30T07:00:23.679Z,24.30
2018-06-30T07:02:51.956Z,24.40
2018-06-30T07:05:20.111Z,24.60
2018-06-30T07:07:48.334Z,24.90
2018-06-30T07:10:16.567Z,24.70
2018-06-30T07:12:44.891Z,24.70
2018-06-30T07:15:13.419Z,25.00
2018-06-30T07:17:41.661Z,25.20
2018-06-30T07:20:09.971Z,25.40
2018-06-30T07:22:38.381Z,25.60
2018-06-30T07:25:06.685Z,26.00
2018-06-30T07:27:34.910Z,26.00
2018-06-30T07:30:03.254Z,25.80
2018-06-30T07:32:31.515Z,25.90
2018-06-30T07:34:59.760Z,25.70
2018-06-30T07:37:28.054Z,25.80
2018-06-30T07:39:56.379Z,26.40
2018-06-30T07:42:24.557Z,26.50
2018-06-30T07:44:52.911Z,26.50
2018-06-30T07:47:21.496Z,27.00
2018-06-30T07:49:49.847Z,27.30
2018-06-30T07:52:18.149Z,27.80
2018-06-30T07:54:48.534Z,28.00
2018-06-30T07:57:16.804Z,28.00
2018-06-30T08:02:12.749Z,28.50
2018-06-30T08:04:41.022Z,28.50
2018-06-30T08:07:09.288Z,28.80
2018-06-30T08:09:37.613Z,28.90
2018-06-30T08:12:05.861Z,28.80
2018-06-30T08:14:34.201Z,28.80
2018-06-30T08:17:02.482Z,28.90
2018-06-30T08:19:30.806Z,29.10
2018-06-30T08:21:59.009Z,29.30
2018-06-30T08:24:27.226Z,29.30
2018-06-30T08:26:55.497Z,29.50
2018-06-30T08:29:23.844Z,28.90
2018-06-30T08:31:52.092Z,29.70
2018-06-30T08:34:20.379Z,29.90
2018-06-30T08:36:48.674Z,30.00
2018-06-30T08:39:16.878Z,29.90
2018-06-30T08:41:45.065Z,29.80
2018-06-30T08:44:13.372Z,29.80
2018-06-30T08:46:41.553Z,30.30
2018-06-30T08:49:09.806Z,30.20
2018-06-30T08:51:38.039Z,30.10
2018-06-30T08:54:06.335Z,30.50
2018-06-30T08:56:34.572Z,30.80
2018-06-30T08:59:02.747Z,30.80
2018-06-30T09:01:31.048Z,30.70
2018-06-30T09:03:59.303Z,30.70
2018-06-30T09:06:27.554Z,30.80
2018-06-30T09:08:55.838Z,30.40
2018-06-30T09:11:24.218Z,30.70
2018-06-30T09:13:52.603Z,31.30
2018-06-30T09:16:20.831Z,31.60
2018-06-30T09:18:49.006Z,31.60
2018-06-30T09:23:44.937Z,31.20
2018-06-30T09:26:13.284Z,31.60
2018-06-30T09:28:41.640Z,32.10
2018-06-30T09:31:09.987Z,32.60
2018-06-30T09:33:38.299Z,32.30
2018-06-30T09:36:06.888Z,32.30
2018-06-30T09:38:35.042Z,32.50
2018-06-30T09:41:03.122Z,33.00
2018-06-30T09:43:31.181Z,32.50
2018-06-30T09:45:59.306Z,32.70
2018-06-30T09:48:27.391Z,33.00
2018-06-30T09:50:55.659Z,33.40
2018-06-30T09:53:23.719Z,33.00
2018-06-30T09:55:51.770Z,33.00
2018-06-30T09:58:19.869Z,33.00
2018-06-30T10:00:54.968Z,33.00
2018-06-30T10:03:23.547Z,33.10
2018-06-30T10:05:51.626Z,32.80
2018-06-30T10:08:19.709Z,33.00
2018-06-30T10:10:47.869Z,33.40
2018-06-30T10:13:16.157Z,33.70
2018-06-30T10:15:44.319Z,33.80
2018-06-30T10:18:12.994Z,33.70
2018-06-30T10:20:41.158Z,33.50
2018-06-30T10:23:09.411Z,33.50
2018-06-30T10:25:37.610Z,33.40
2018-06-30T10:28:05.860Z,33.50
2018-06-30T10:30:34.051Z,33.90
2018-06-30T10:33:02.198Z,33.70
2018-06-30T10:35:30.321Z,33.10
2018-06-30T10:37:58.369Z,33.10
2018-06-30T10:40:26.542Z,33.30
2018-06-30T10:42:54.626Z,33.40
2018-06-30T10:45:22.735Z,33.60
2018-06-30T10:47:50.910Z,34.00
2018-06-30T10:50:18.985Z,34.00
2018-06-30T10:52:47.115Z,34.50
2018-06-30T10:55:15.282Z,34.50
2018-06-30T10:57:43.397Z,34.50
2018-06-30T11:00:11.703Z,35.20
2018-06-30T11:02:40.157Z,35.30
2018-06-30T11:05:08.629Z,35.00
2018-06-30T11:07:36.972Z,34.90
2018-06-30T11:10:05.359Z,35.10
2018-06-30T11:12:33.711Z,35.60
2018-06-30T11:15:02.106Z,35.30
2018-06-30T11:17:30.454Z,35.60
2018-06-30T11:19:59.035Z,35.40
2018-06-30T11:22:27.474Z,35.50
2018-06-30T11:24:55.870Z,35.60
2018-06-30T11:27:24.480Z,35.70
2018-06-30T11:29:52.742Z,35.50
2018-06-30T11:32:21.044Z,35.60
2018-06-30T11:34:49.294Z,35.60
2018-06-30T11:37:17.542Z,35.90
2018-06-30T11:39:45.766Z,35.30
2018-06-30T11:42:14.132Z,35.80
2018-06-30T11:44:42.356Z,35.70
2018-06-30T11:47:10.741Z,35.80
2018-06-30T11:49:38.977Z,35.60
2018-06-30T11:52:07.170Z,35.50
2018-06-30T11:54:35.506Z,36.00
2018-06-30T11:57:03.955Z,36.10
2018-06-30T11:59:32.249Z,35.70
2018-06-30T12:02:00.530Z,36.30
2018-06-30T12:04:28.714Z,36.00
2018-06-30T12:06:57.007Z,36.10
2018-06-30T12:09:25.310Z,36.20
2018-06-30T12:11:53.599Z,36.30
2018-06-30T12:14:21.810Z,36.50
2018-06-30T12:16:50.023Z,36.40
2018-06-30T12:19:18.181Z,36.40
2018-06-30T12:21:46.358Z,36.10
2018-06-30T12:24:14.583Z,36.40
2018-06-30T12:26:42.851Z,37.00
2018-06-30T12:29:11.218Z,36.50
2018-06-30T12:31:39.410Z,37.00
2018-06-30T12:34:07.605Z,37.10
2018-06-30T12:36:35.907Z,37.00
2018-06-30T12:39:04.840Z,36.80
2018-06-30T12:41:33.100Z,36.40
2018-06-30T12:44:01.340Z,36.20
2018-06-30T12:46:29.531Z,36.00
2018-06-30T12:48:57.715Z,36.90
2018-06-30T12:51:26.000Z,36.60
2018-06-30T12:53:54.314Z,36.90
2018-06-30T12:56:22.607Z,37.00
2018-06-30T12:58:50.890Z,37.60
2018-06-30T13:01:19.232Z,37.20
2018-06-30T13:03:47.532Z,36.80
2018-06-30T13:06:15.777Z,36.80
2018-06-30T13:08:44.378Z,36.80
2018-06-30T13:11:12.658Z,37.30
2018-06-30T13:13:40.946Z,37.40
2018-06-30T13:16:09.233Z,36.90
2018-06-30T13:18:37.718Z,37.00
2018-06-30T13:21:06.193Z,37.70
2018-06-30T13:23:34.474Z,37.50
2018-06-30T13:26:02.890Z,38.20
2018-06-30T13:30:58.888Z,37.50
2018-06-30T13:33:27.304Z,38.40
2018-06-30T13:35:55.510Z,38.80
2018-06-30T13:38:23.790Z,39.30
2018-06-30T13:40:52.268Z,38.10
2018-06-30T13:43:20.593Z,37.70
2018-06-30T13:45:48.987Z,38.00
2018-06-30T13:50:44.931Z,37.90
2018-06-30T13:53:13.240Z,38.00
2018-06-30T13:55:41.485Z,37.70
2018-06-30T13:58:09.796Z,37.70
2018-06-30T14:00:38.029Z,37.40
2018-06-30T14:05:34.082Z,36.90
2018-06-30T14:08:02.255Z,37.10
2018-06-30T14:10:30.603Z,37.20
2018-06-30T14:12:58.966Z,36.90
2018-06-30T14:15:30.564Z,37.20
2018-06-30T14:17:58.838Z,37.70
2018-06-30T14:20:27.183Z,37.10
2018-06-30T14:22:55.468Z,37.30
2018-06-30T14:25:23.703Z,36.90
2018-06-30T14:27:52.042Z,36.60
2018-06-30T14:32:48.003Z,35.70
2018-06-30T14:35:16.223Z,36.30
2018-06-30T14:37:44.805Z,35.70
2018-06-30T14:40:13.162Z,36.40
2018-06-30T14:42:41.485Z,36.20
2018-06-30T14:45:09.753Z,36.60
2018-06-30T14:47:38.061Z,36.40
2018-06-30T14:50:06.391Z,36.10
2018-06-30T14:52:34.703Z,36.50
2018-06-30T14:55:02.997Z,36.50
2018-06-30T14:57:31.257Z,36.50
2018-06-30T14:59:59.547Z,36.30
2018-06-30T15:02:27.766Z,36.10
2018-06-30T15:04:56.127Z,36.40
2018-06-30T15:07:24.537Z,36.40
2018-06-30T15:09:52.835Z,36.50
2018-06-30T15:12:21.066Z,36.20
2018-06-30T15:14:49.388Z,36.40
2018-06-30T15:17:17.626Z,36.30
2018-06-30T15:19:45.952Z,35.70
2018-06-30T15:22:14.196Z,35.50
2018-06-30T15:24:42.451Z,35.90
2018-06-30T15:27:11.782Z,35.10
2018-06-30T15:29:40.026Z,35.20
2018-06-30T15:32:08.331Z,35.20
2018-06-30T15:34:36.567Z,35.20
2018-06-30T15:37:04.899Z,35.70
2018-06-30T15:39:33.055Z,36.00
2018-06-30T15:42:01.406Z,36.60
2018-06-30T15:44:29.872Z,36.10
2018-06-30T15:46:58.309Z,36.10
2018-06-30T15:49:26.606Z,35.90
2018-06-30T15:51:54.839Z,35.60
2018-06-30T15:54:23.074Z,35.30
2018-06-30T15:56:51.562Z,35.70
2018-06-30T15:59:19.732Z,36.10
2018-06-30T16:01:47.934Z,35.70
2018-06-30T16:04:16.161Z,35.80
2018-06-30T16:06:44.503Z,36.30
2018-06-30T16:09:12.782Z,36.00
2018-06-30T16:11:41.213Z,35.80
2018-06-30T16:14:10.004Z,35.50
2018-06-30T16:16:38.851Z,35.90
2018-06-30T16:19:07.070Z,35.40
2018-06-30T16:21:35.459Z,35.40
2018-06-30T16:24:03.706Z,35.70
2018-06-30T16:26:32.048Z,35.70
2018-06-30T16:29:00.254Z,35.60
2018-06-30T16:31:28.483Z,35.00
2018-06-30T16:33:56.893Z,34.70
2018-06-30T16:36:25.666Z,34.40
2018-06-30T16:38:53.916Z,34.50
2018-06-30T16:41:22.148Z,34.10
2018-06-30T16:43:50.512Z,34.50
2018-06-30T16:46:18.745Z,34.40
2018-06-30T16:48:46.921Z,34.90
2018-06-30T16:51:15.263Z,34.50
2018-06-30T16:53:43.572Z,34.70
2018-06-30T16:56:11.811Z,34.30
2018-06-30T16:58:40.152Z,34.40
2018-06-30T17:01:08.398Z,34.80
2018-06-30T17:03:36.666Z,34.50
2018-06-30T17:06:04.975Z,34.30
2018-06-30T17:08:33.335Z,34.90
2018-06-30T17:11:01.571Z,34.80
2018-06-30T17:13:29.835Z,35.40
2018-06-30T17:15:58.070Z,35.30
2018-06-30T17:18:26.304Z,35.30
2018-06-30T17:20:54.575Z,35.50
2018-06-30T17:23:22.953Z,35.30
2018-06-30T17:25:51.238Z,35.70
2018-06-30T17:28:19.538Z,35.00
2018-06-30T17:30:47.831Z,34.10
2018-06-30T17:33:16.087Z,34.30
2018-06-30T17:35:44.272Z,33.70
2018-06-30T17:38:12.507Z,34.10
2018-06-30T17:40:40.766Z,34.20
2018-06-30T17:43:09.002Z,33.50
2018-06-30T17:45:37.279Z,32.90
2018-06-30T17:48:05.633Z,32.40
2018-06-30T17:50:33.928Z,32.10
2018-06-30T17:53:02.580Z,31.90
2018-06-30T17:55:30.839Z,31.60
2018-06-30T17:57:59.063Z,31.20
2018-06-30T18:00:27.295Z,30.80
2018-06-30T18:02:55.474Z,30.50
2018-06-30T18:05:23.834Z,30.00
2018-06-30T18:07:52.058Z,29.90
2018-06-30T18:10:20.400Z,29.80
2018-06-30T18:12:48.590Z,29.30
2018-06-30T18:15:16.860Z,29.10
2018-06-30T18:17:45.232Z,28.80
2018-06-30T18:20:13.486Z,28.90
2018-06-30T18:22:41.840Z,28.80
2018-06-30T18:25:10.028Z,28.90
2018-06-30T18:27:38.237Z,28.50
2018-06-30T18:30:06.905Z,28.30
2018-06-30T18:32:35.124Z,28.10
2018-06-30T18:35:03.414Z,28.00
2018-06-30T18:37:31.629Z,27.80
2018-06-30T18:40:00.045Z,27.80
2018-06-30T18:42:28.315Z,27.60
2018-06-30T18:44:56.652Z,27.30
2018-06-30T18:47:24.882Z,27.20
2018-06-30T18:49:53.091Z,27.10
2018-06-30T18:52:21.491Z,27.00
2018-06-30T18:54:49.690Z,26.80
2018-06-30T18:57:17.919Z,26.70
2018-06-30T18:59:46.183Z,26.60
2018-06-30T19:02:14.497Z,26.40
2018-06-30T19:04:42.751Z,26.50
2018-06-30T19:07:10.985Z,26.20
2018-06-30T19:09:39.223Z,26.10
2018-06-30T19:12:07.606Z,26.10
2018-06-30T19:14:35.762Z,25.80
2018-06-30T19:17:04.084Z,25.70
2018-06-30T19:19:32.399Z,25.60
2018-06-30T19:22:00.641Z,25.70
2018-06-30T19:24:28.910Z,25.70
2018-06-30T19:26:57.134Z,25.60
2018-06-30T19:29:25.491Z,25.50
2018-06-30T19:31:53.674Z,25.60
2018-06-30T19:34:21.872Z,25.40
2018-06-30T19:36:50.145Z,25.20
2018-06-30T19:39:18.367Z,24.80
2018-06-30T19:41:46.629Z,24.70
2018-06-30T19:44:14.796Z,24.80
2018-06-30T19:46:43.096Z,24.70
2018-06-30T19:49:11.339Z,24.70
2018-06-30T19:51:39.656Z,24.50
2018-06-30T19:54:07.925Z,24.50
2018-06-30T19:56:36.182Z,24.10
2018-06-30T19:59:04.511Z,23.90
2018-06-30T20:01:32.715Z,23.80
2018-06-30T20:04:00.967Z,23.80
2018-06-30T20:06:29.162Z,23.80
2018-06-30T20:08:57.386Z,23.60
2018-06-30T20:11:25.583Z,23.70
2018-06-30T20:13:53.814Z,23.50
2018-06-30T20:16:22.026Z,23.50
2018-06-30T20:18:50.274Z,23.30
2018-06-30T20:21:18.508Z,23.10
2018-06-30T20:23:46.927Z,23.10
2018-06-30T20:26:15.226Z,23.20
2018-06-30T20:28:43.514Z,23.10
2018-06-30T20:31:11.792Z,22.90
2018-06-30T20:33:40.028Z,22.80
2018-06-30T20:36:08.256Z,22.70
2018-06-30T20:38:36.449Z,22.60
2018-06-30T20:41:04.670Z,22.40
2018-06-30T20:43:32.909Z,22.10
2018-06-30T20:46:01.259Z,22.10
2018-06-30T20:48:29.606Z,21.90
2018-06-30T20:50:57.860Z,21.80
2018-06-30T20:53:26.232Z,21.70
2018-06-30T20:55:54.814Z,21.50
2018-06-30T20:58:23.060Z,21.60
2018-06-30T21:00:51.439Z,21.50
2018-06-30T21:03:19.711Z,21.50
2018-06-30T21:05:48.035Z,21.30
2018-06-30T21:08:16.316Z,21.40
2018-06-30T21:10:44.571Z,21.40
2018-06-30T21:13:12.865Z,21.20
2018-06-30T21:15:41.117Z,21.20
2018-06-30T21:18:09.286Z,21.10
2018-06-30T21:20:37.527Z,20.90
2018-06-30T21:23:05.811Z,20.80
2018-06-30T21:25:34.110Z,20.80
2018-06-30T21:28:02.327Z,20.60
2018-06-30T21:30:30.572Z,20.60
2018-06-30T21:32:58.855Z,20.60
2018-06-30T21:35:27.047Z,20.60
2018-06-30T21:37:55.307Z,20.40
2018-06-30T21:40:23.639Z,20.20
2018-06-30T21:42:51.816Z,20.20
2018-06-30T21:45:20.028Z,20.30
2018-06-30T21:47:48.210Z,20.20
2018-06-30T21:50:16.628Z,20.20
2018-06-30T21:52:44.939Z,20.00
2018-06-30T21:55:13.223Z,20.00
2018-06-30T21:57:41.661Z,20.00
2018-06-30T22:00:12.017Z,19.90
2018-06-30T22:02:40.444Z,19.90
2018-06-30T22:05:08.722Z,20.00
2018-06-30T22:07:37.212Z,20.10
2018-06-30T22:10:06.135Z,20.00
2018-06-30T22:12:34.911Z,20.00
2018-06-30T22:15:03.403Z,19.90
2018-06-30T22:17:31.724Z,19.90
2018-06-30T22:19:59.950Z,19.80
2018-06-30T22:22:28.273Z,19.60
2018-06-30T22:24:56.524Z,19.50
2018-06-30T22:27:24.786Z,19.40
2018-06-30T22:29:53.039Z,19.40
2018-06-30T22:32:21.296Z,19.40
2018-06-30T22:34:49.551Z,19.30
2018-06-30T22:37:17.826Z,19.20
2018-06-30T22:39:51.475Z,19.20
2018-06-30T22:42:19.734Z,19.20
2018-06-30T22:44:47.982Z,19.10
2018-06-30T22:47:16.422Z,19.00
2018-06-30T22:49:44.716Z,18.90
2018-06-30T22:52:12.905Z,18.90
2018-06-30T22:54:41.212Z,18.90
2018-06-30T22:59:37.289Z,18.70
2018-06-30T23:02:05.530Z,18.60
2018-06-30T23:04:33.749Z,18.60
2018-06-30T23:07:02.011Z,18.50
2018-06-30T23:09:30.249Z,18.40
2018-06-30T23:11:58.437Z,18.30
2018-06-30T23:16:54.429Z,18.30
2018-06-30T23:19:22.672Z,18.40
2018-06-30T23:21:50.890Z,18.30
2018-06-30T23:24:19.163Z,18.20
2018-06-30T23:26:47.687Z,18.30
2018-06-30T23:29:16.032Z,18.30
2018-06-30T23:31:44.320Z,18.30
2018-06-30T23:34:12.555Z,18.30
2018-06-30T23:36:40.856Z,18.30
2018-06-30T23:39:10.237Z,18.30
2018-06-30T23:41:38.549Z,18.30
2018-06-30T23:44:06.815Z,18.20
2018-06-30T23:46:35.075Z,18.10
2018-06-30T23:49:03.381Z,18.20
2018-06-30T23:51:31.721Z,18.10
2018-06-30T23:53:59.958Z,18.10
2018-06-30T23:56:28.178Z,18.00
2018-06-30T23:58:56.423Z,18.10
